Time;durP1;ratioP1;P1;durP2;ratioP2;P2;SDS_P1;SDS_P2;PMS_P1;PMS_P2;Temp;Humidity;BMP_temperature;BMP_pressure;BME280_temperature;BME280_humidity;BME280_pressure;Samples;Min_cycle;Max_cycle;Signal;HPM_P1;HPM_P2
2022/04/10 00:00:47;;;;;;;5.07;4.57;;;22.10;68.40;;;;;;6260336;28;89128;-70
2022/04/10 00:03:49;;;;;;;4.65;4.25;;;22.10;68.40;;;;;;6257922;28;89085;-72
2022/04/10 00:06:51;;;;;;;4.55;4.15;;;22.10;68.40;;;;;;6247489;28;89030;-72
2022/04/10 00:09:53;;;;;;;4.72;4.22;;;22.10;68.40;;;;;;6259004;28;88357;-72
2022/04/10 00:12:56;;;;;;;5.05;4.55;;;22.10;68.40;;;;;;6257117;27;89350;-71
2022/04/10 00:15:59;;;;;;;4.40;4.00;;;22.10;68.40;;;;;;6246682;28;89092;-71
2022/04/10 00:19:04;;;;;;;4.70;4.30;;;22.10;68.40;;;;;;6259263;28;90132;-73
2022/04/10 00:22:06;;;;;;;4.40;3.92;;;22.10;68.40;;;;;;6258308;28;89125;-72
2022/04/10 00:25:27;;;;;;;4.05;3.65;;;22.10;68.40;;;;;;6250449;28;90319;-72
2022/04/10 00:28:29;;;;;;;4.97;4.25;;;22.10;68.40;;;;;;6258132;28;89235;-71
2022/04/10 00:31:32;;;;;;;4.38;3.97;;;22.10;68.50;;;;;;6258948;28;89179;-72
2022/04/10 00:34:34;;;;;;;4.28;3.88;;;22.00;68.40;;;;;;6259000;28;89109;-71
2022/04/10 00:37:37;;;;;;;4.40;4.00;;;22.00;68.50;;;;;;6253012;28;89077;-72
2022/04/10 00:40:39;;;;;;;4.32;3.70;;;22.10;68.60;;;;;;6247682;28;88410;-72
2022/04/10 00:44:03;;;;;;;4.40;4.00;;;22.00;68.50;;;;;;6252421;28;89080;-71
2022/04/10 00:47:10;;;;;;;4.05;3.65;;;22.00;68.40;;;;;;6247217;28;89091;-72
2022/04/10 00:50:13;;;;;;;4.45;4.00;;;22.00;68.50;;;;;;6257764;28;90445;-71
2022/04/10 00:53:15;;;;;;;3.88;3.45;;;22.00;68.60;;;;;;6259434;28;89052;-72
2022/04/10 00:56:17;;;;;;;3.97;3.58;;;22.00;68.60;;;;;;6257264;27;89061;-71
2022/04/10 00:59:20;;;;;;;3.85;3.40;;;22.00;68.60;;;;;;6259062;28;89109;-72
2022/04/10 01:02:24;;;;;;;4.20;3.80;;;22.00;69.40;;;;;;6259085;28;89227;-71
2022/04/10 01:05:26;;;;;;;3.97;3.60;;;22.00;68.40;;;;;;6247464;28;89042;-71
2022/04/10 01:08:29;;;;;;;3.85;3.47;;;22.00;68.80;;;;;;6257661;28;89159;-72
2022/04/10 01:11:31;;;;;;;3.83;3.50;;;22.00;68.50;;;;;;6257121;28;88363;-71
2022/04/10 01:14:33;;;;;;;4.35;3.47;;;22.00;68.40;;;;;;6258279;28;89094;-72
2022/04/10 01:17:36;;;;;;;3.80;3.40;;;22.00;68.40;;;;;;6249662;28;89147;-71
2022/04/10 01:20:38;;;;;;;3.83;3.40;;;22.00;68.50;;;;;;6249178;28;90381;-71
2022/04/10 01:23:45;;;;;;;3.78;3.40;;;22.00;68.50;;;;;;6255327;28;88074;-72
2022/04/10 01:26:48;;;;;;;4.03;3.53;;;21.90;68.50;;;;;;6257023;27;89373;-71
2022/04/10 01:29:49;;;;;;;3.50;3.20;;;21.90;68.60;;;;;;6259350;28;88018;-71
2022/04/10 01:32:51;;;;;;;3.67;3.38;;;21.90;68.60;;;;;;6258502;27;89020;-71
2022/04/10 01:35:54;;;;;;;2.92;2.72;;;21.90;68.60;;;;;;6257203;27;88022;-71
2022/04/10 01:38:59;;;;;;;3.50;3.17;;;21.90;68.60;;;;;;6258839;28;89099;-72
2022/04/10 01:42:01;;;;;;;3.10;2.80;;;21.90;68.70;;;;;;6245077;28;88267;-72
2022/04/10 01:45:03;;;;;;;3.70;3.40;;;21.90;68.70;;;;;;6244562;28;87949;-72
2022/04/10 01:48:06;;;;;;;3.42;3.13;;;21.90;68.60;;;;;;6258203;28;88764;-72
2022/04/10 01:51:09;;;;;;;4.07;3.50;;;21.90;68.70;;;;;;6257014;28;89884;-72
2022/04/10 01:54:13;;;;;;;3.25;2.90;;;21.90;68.60;;;;;;6254266;28;89164;-71
2022/04/10 01:57:15;;;;;;;3.58;3.28;;;21.90;68.60;;;;;;6257475;28;89096;-72
2022/04/10 02:00:17;;;;;;;3.70;3.40;;;21.90;68.70;;;;;;6244731;28;87967;-72
2022/04/10 02:03:19;;;;;;;3.40;3.10;;;21.90;68.70;;;;;;6257186;28;89270;-72
2022/04/10 02:06:21;;;;;;;3.72;3.42;;;21.90;68.80;;;;;;6256940;27;89168;-71
2022/04/10 02:09:24;;;;;;;3.75;3.35;;;21.90;68.80;;;;;;6255861;27;89375;-72
2022/04/10 02:12:26;;;;;;;4.10;3.53;;;21.80;68.70;;;;;;6257818;28;88264;-73
2022/04/10 02:15:28;;;;;;;3.60;3.30;;;21.80;68.70;;;;;;6257741;28;89189;-71
2022/04/10 02:18:30;;;;;;;4.10;3.58;;;21.90;68.80;;;;;;6256098;28;89370;-72
2022/04/10 02:21:32;;;;;;;4.32;3.92;;;21.80;68.80;;;;;;6257002;28;90089;-72
2022/04/10 02:24:36;;;;;;;4.32;3.90;;;21.80;68.60;;;;;;6257821;28;87909;-72
2022/04/10 02:27:38;;;;;;;4.35;3.95;;;21.80;68.70;;;;;;6256129;28;89374;-71
2022/04/10 02:30:39;;;;;;;4.25;3.85;;;21.80;68.70;;;;;;6258404;28;87948;-72
2022/04/10 02:33:41;;;;;;;4.57;3.70;;;21.80;68.70;;;;;;6244084;28;89131;-73
2022/04/10 02:36:47;;;;;;;5.30;4.50;;;21.80;68.60;;;;;;6255828;28;88984;-72
2022/04/10 02:39:50;;;;;;;5.00;4.50;;;21.80;68.60;;;;;;6256259;27;89081;-73
2022/04/10 02:42:52;;;;;;;4.85;4.35;;;21.80;68.60;;;;;;6245873;27;88397;-72
2022/04/10 02:45:54;;;;;;;5.20;4.70;;;21.80;68.60;;;;;;6255402;28;89015;-71
2022/04/10 02:48:56;;;;;;;5.07;4.57;;;21.80;68.60;;;;;;6256707;28;89269;-73
2022/04/10 02:51:58;;;;;;;5.82;5.13;;;21.80;68.60;;;;;;6242783;28;89069;-72
2022/04/10 02:55:01;;;;;;;5.15;4.65;;;21.80;68.70;;;;;;6255275;28;89144;-72
2022/04/10 02:58:03;;;;;;;5.65;5.10;;;21.80;68.60;;;;;;6254228;28;89282;-72
2022/04/10 03:01:05;;;;;;;5.47;4.80;;;21.80;68.70;;;;;;6254277;27;89037;-72
2022/04/10 03:04:08;;;;;;;5.63;5.13;;;21.80;68.60;;;;;;6256840;28;89031;-72
2022/04/10 03:07:10;;;;;;;5.75;5.15;;;21.80;68.60;;;;;;6256866;28;89273;-72
2022/04/10 03:10:13;;;;;;;5.80;5.22;;;21.80;68.60;;;;;;6256797;28;89447;-71
2022/04/10 03:13:16;;;;;;;6.05;5.45;;;21.70;68.60;;;;;;6256928;27;88402;-71
2022/04/10 03:16:18;;;;;;;6.03;5.43;;;21.70;68.50;;;;;;6255881;28;89043;-72
2022/04/10 03:19:20;;;;;;;5.85;5.25;;;21.80;68.60;;;;;;6242209;27;89058;-72
2022/04/10 03:22:40;;;;;;;5.95;5.35;;;21.70;68.60;;;;;;6261552;27;89998;-72
2022/04/10 03:25:44;;;;;;;6.38;5.78;;;21.70;68.60;;;;;;6256648;28;88063;-71
2022/04/10 03:28:46;;;;;;;5.65;5.07;;;21.70;68.50;;;;;;6250060;28;89528;-71
2022/04/10 03:31:48;;;;;;;6.40;5.80;;;21.70;68.40;;;;;;6250792;28;89147;-71
2022/04/10 03:34:50;;;;;;;6.40;5.80;;;21.70;68.30;;;;;;6261419;28;89192;-71
2022/04/10 03:37:52;;;;;;;6.10;5.50;;;21.80;68.40;;;;;;6261849;28;89054;-71
2022/04/10 03:40:55;;;;;;;6.10;5.50;;;21.70;68.30;;;;;;6248011;28;89615;-71
2022/04/10 03:43:57;;;;;;;7.80;5.97;;;21.80;68.30;;;;;;6260548;28;87205;-71
2022/04/10 03:46:59;;;;;;;6.25;5.65;;;21.80;68.30;;;;;;6260362;27;89110;-71
2022/04/10 03:50:01;;;;;;;6.30;5.70;;;21.80;68.30;;;;;;6259665;27;89057;-71
2022/04/10 03:53:04;;;;;;;5.90;5.30;;;21.80;68.20;;;;;;6257872;27;89874;-72
2022/04/10 03:56:07;;;;;;;5.93;5.32;;;21.80;68.10;;;;;;6260372;28;89154;-72
2022/04/10 03:59:28;;;;;;;6.32;5.72;;;21.80;68.00;;;;;;6259131;28;89058;-72
2022/04/10 04:02:30;;;;;;;6.53;5.82;;;21.80;68.00;;;;;;6255862;28;89064;-70
2022/04/10 04:05:32;;;;;;;6.28;5.68;;;21.80;67.90;;;;;;6255890;28;89025;-71
2022/04/10 04:08:34;;;;;;;6.10;5.50;;;21.80;67.90;;;;;;6258509;28;88655;-72
2022/04/10 04:11:37;;;;;;;6.57;5.85;;;21.80;67.90;;;;;;6260923;28;88979;-71
2022/04/10 04:14:39;;;;;;;6.45;5.85;;;21.90;67.90;;;;;;6257811;28;88383;-72
2022/04/10 04:17:41;;;;;;;5.60;5.10;;;21.90;67.90;;;;;;6245233;28;88020;-72
2022/04/10 04:20:43;;;;;;;6.43;5.82;;;21.90;67.90;;;;;;6242205;28;89052;-72
2022/04/10 04:23:45;;;;;;;6.35;5.75;;;21.90;67.80;;;;;;6242409;28;90116;-71
2022/04/10 04:26:49;;;;;;;6.60;5.90;;;21.90;67.70;;;;;;6251629;28;89075;-72
2022/04/10 04:29:51;;;;;;;6.45;5.85;;;21.90;67.70;;;;;;6245984;28;89064;-71
2022/04/10 04:32:53;;;;;;;6.50;5.88;;;21.90;67.70;;;;;;6243434;28;89214;-72
2022/04/10 04:35:55;;;;;;;6.25;5.65;;;21.90;67.70;;;;;;6249084;27;89014;-71
2022/04/10 04:38:57;;;;;;;6.03;5.50;;;21.90;67.70;;;;;;6250623;28;88074;-71
2022/04/10 04:42:00;;;;;;;6.13;5.53;;;21.90;67.70;;;;;;6253687;28;88103;-72
2022/04/10 04:45:03;;;;;;;6.10;5.50;;;21.90;67.70;;;;;;6251452;28;88800;-71
2022/04/10 04:48:05;;;;;;;5.90;5.30;;;21.90;67.60;;;;;;6245683;28;89130;-72
2022/04/10 04:51:07;;;;;;;6.25;5.30;;;21.90;67.60;;;;;;6252290;28;88996;-71
2022/04/10 04:54:09;;;;;;;5.85;5.35;;;21.90;67.60;;;;;;6241124;28;89965;-71
2022/04/10 04:57:13;;;;;;;6.55;5.80;;;21.90;67.60;;;;;;6250546;28;89173;-71
2022/04/10 05:00:16;;;;;;;5.60;5.10;;;21.90;67.60;;;;;;6248931;28;88915;-71
2022/04/10 05:03:18;;;;;;;5.68;5.07;;;21.90;67.60;;;;;;6246928;27;89145;-72
2022/04/10 05:06:20;;;;;;;5.93;5.43;;;21.90;67.60;;;;;;6254225;27;89198;-71
2022/04/10 05:09:22;;;;;;;6.20;5.60;;;22.00;67.70;;;;;;6258457;28;89092;-71
2022/04/10 05:12:25;;;;;;;6.03;5.30;;;22.00;67.60;;;;;;6244808;28;89463;-72
2022/04/10 05:15:27;;;;;;;6.22;5.63;;;21.90;67.60;;;;;;6259565;28;88353;-71
2022/04/10 05:18:29;;;;;;;5.75;5.15;;;21.90;67.60;;;;;;6259041;27;89379;-72
2022/04/10 05:21:32;;;;;;;6.22;5.63;;;21.90;67.60;;;;;;6257905;28;89098;-72
2022/04/10 05:24:34;;;;;;;6.25;5.65;;;22.00;67.60;;;;;;6258099;28;89884;-72
2022/04/10 05:27:37;;;;;;;5.35;4.85;;;22.00;67.60;;;;;;6256215;28;88911;-72
2022/04/10 05:30:39;;;;;;;5.30;4.80;;;22.00;67.60;;;;;;6257963;27;89155;-71
2022/04/10 05:33:41;;;;;;;5.75;5.25;;;22.00;67.70;;;;;;6257417;27;89141;-72
2022/04/10 05:36:43;;;;;;;5.82;5.22;;;21.90;67.60;;;;;;6257164;27;89088;-71
2022/04/10 05:39:45;;;;;;;5.70;5.20;;;22.00;67.60;;;;;;6255628;28;88991;-71
2022/04/10 05:42:49;;;;;;;5.75;5.25;;;22.00;67.60;;;;;;6257319;27;89010;-72
2022/04/10 05:45:52;;;;;;;5.60;5.07;;;22.00;67.60;;;;;;6258068;28;88598;-72
2022/04/10 05:48:54;;;;;;;6.13;5.07;;;22.00;67.60;;;;;;6259059;28;89098;-71
2022/04/10 05:51:56;;;;;;;5.43;4.93;;;22.00;67.60;;;;;;6257018;27;87882;-69
2022/04/10 05:54:59;;;;;;;5.63;5.13;;;22.10;67.70;;;;;;6256197;27;89771;-70
2022/04/10 05:58:04;;;;;;;5.20;4.70;;;22.00;67.60;;;;;;6253103;27;89025;-72
2022/04/10 06:01:06;;;;;;;5.72;5.13;;;22.00;67.60;;;;;;6253748;27;88039;-71
2022/04/10 06:04:08;;;;;;;5.30;4.70;;;22.00;67.70;;;;;;6244097;27;89412;-72
2022/04/10 06:07:10;;;;;;;5.43;4.93;;;22.00;67.70;;;;;;6254456;27;88965;-71
2022/04/10 06:10:12;;;;;;;5.15;4.65;;;22.00;67.70;;;;;;6256935;28;87901;-73
2022/04/10 06:13:15;;;;;;;5.10;4.60;;;22.00;67.80;;;;;;6252393;28;89172;-71
2022/04/10 06:16:17;;;;;;;5.22;4.72;;;22.00;67.70;;;;;;6236437;28;87228;-71
2022/04/10 06:19:19;;;;;;;4.72;4.32;;;22.00;67.70;;;;;;6249134;28;89124;-71
2022/04/10 06:22:23;;;;;;;4.93;4.43;;;22.00;67.70;;;;;;6252796;27;89391;-70
2022/04/10 06:25:25;;;;;;;4.97;4.50;;;22.10;67.70;;;;;;6252112;28;90070;-71
2022/04/10 06:28:30;;;;;;;4.93;4.50;;;22.10;67.70;;;;;;6255755;27;89039;-71
2022/04/10 06:31:32;;;;;;;5.30;4.80;;;22.10;67.90;;;;;;6243818;28;89093;-71
2022/04/10 06:34:34;;;;;;;4.60;4.20;;;22.10;69.30;;;;;;6257025;28;89141;-69
2022/04/10 06:37:38;;;;;;;31.17;15.55;;;22.10;69.30;;;;;;6256212;28;89125;-70
2022/04/10 06:40:40;;;;;;;62.42;40.70;;;22.20;73.50;;;;;;6256618;28;88145;-70
2022/04/10 06:43:43;;;;;;;13.63;9.75;;;22.20;75.90;;;;;;6251994;27;88096;-70
2022/04/10 06:46:45;;;;;;;8.98;6.93;;;22.30;71.10;;;;;;6248584;28;88649;-70
2022/04/10 06:49:47;;;;;;;8.35;6.10;;;22.50;69.70;;;;;;6255741;28;89416;-68
2022/04/10 06:52:49;;;;;;;7.28;5.72;;;22.60;68.80;;;;;;6256356;28;87872;-72
2022/04/10 06:55:51;;;;;;;6.63;5.53;;;22.60;68.30;;;;;;6253213;28;90366;-69
2022/04/10 06:58:55;;;;;;;7.03;5.47;;;22.60;68.20;;;;;;6247066;27;88980;-71
2022/04/10 07:01:57;;;;;;;7.80;5.38;;;22.60;68.30;;;;;;6254105;28;89328;-71
2022/04/10 07:04:59;;;;;;;7.35;5.13;;;22.60;67.90;;;;;;6256101;27;89091;-73
2022/04/10 07:08:01;;;;;;;9.35;4.70;;;22.60;67.70;;;;;;6255588;28;87982;-72
2022/04/10 07:11:03;;;;;;;5.60;3.95;;;22.50;67.20;;;;;;6256107;28;89227;-71
2022/04/10 07:14:06;;;;;;;9.20;4.28;;;22.60;65.20;;;;;;6257283;28;89132;-70
2022/04/10 07:17:09;;;;;;;7.45;4.22;;;22.50;64.70;;;;;;6255260;28;87223;-71
2022/04/10 07:20:11;;;;;;;10.15;4.45;;;22.50;63.50;;;;;;6252288;27;88866;-72
2022/04/10 07:26:33;;;;;;;11.88;5.60;;;22.50;64.00;;;;;;6254102;28;88220;-71
2022/04/10 07:29:36;;;;;;;10.38;5.28;;;22.50;64.60;;;;;;6250556;28;89049;-71
2022/04/10 07:32:39;;;;;;;10.07;5.40;;;22.50;64.90;;;;;;6254265;27;89157;-72
2022/04/10 07:35:41;;;;;;;9.77;5.32;;;22.50;65.30;;;;;;6255689;27;89523;-72
2022/04/10 07:38:43;;;;;;;10.10;5.05;;;22.40;65.60;;;;;;6254230;28;89141;-72
2022/04/10 07:41:45;;;;;;;13.93;5.85;;;22.40;65.90;;;;;;6252994;28;89459;-72
2022/04/10 07:45:07;;;;;;;12.23;5.22;;;22.40;66.10;;;;;;6256372;27;89370;-70
2022/04/10 07:48:08;;;;;;;14.35;5.85;;;22.50;66.40;;;;;;6254218;28;88276;-70
2022/04/10 07:51:10;;;;;;;16.25;6.43;;;22.50;66.60;;;;;;6253024;28;87919;-72
2022/04/10 07:54:12;;;;;;;23.38;7.72;;;22.50;67.10;;;;;;6249440;27;89100;-72
2022/04/10 07:57:14;;;;;;;17.88;7.22;;;22.50;67.70;;;;;;6253621;28;90570;-73
2022/04/10 08:00:37;;;;;;;17.58;7.68;;;22.50;67.60;;;;;;6246801;28;88870;-72
2022/04/10 08:03:39;;;;;;;16.42;6.68;;;22.50;67.80;;;;;;6252607;27;89136;-72
2022/04/10 08:06:41;;;;;;;16.02;6.40;;;22.50;67.70;;;;;;6254005;27;89159;-72
2022/04/10 08:09:43;;;;;;;12.98;5.93;;;22.50;67.70;;;;;;6247834;28;89565;-71
2022/04/10 08:12:45;;;;;;;11.75;5.78;;;22.50;67.70;;;;;;6259767;28;89261;-72
2022/04/10 08:15:49;;;;;;;11.25;5.15;;;22.50;67.80;;;;;;6258744;28;87493;-72
2022/04/10 08:18:52;;;;;;;9.57;5.13;;;22.50;67.70;;;;;;6260146;28;88581;-72
2022/04/10 08:21:55;;;;;;;9.52;5.07;;;22.50;67.60;;;;;;6249450;28;89117;-70
2022/04/10 08:25:01;;;;;;;10.85;5.82;;;22.60;67.20;;;;;;6256866;28;89089;-72
2022/04/10 08:28:03;;;;;;;9.45;5.00;;;22.60;72.70;;;;;;6250023;28;90148;-71
2022/04/10 08:31:07;;;;;;;8.57;4.70;;;22.60;73.40;;;;;;6259563;28;89157;-70
2022/04/10 08:34:09;;;;;;;7.53;4.07;;;22.80;71.20;;;;;;6255717;27;89350;-72
2022/04/10 08:37:11;;;;;;;8.45;4.15;;;22.90;70.10;;;;;;6259273;28;89508;-71
2022/04/10 08:40:13;;;;;;;8.45;4.30;;;23.00;69.20;;;;;;6254517;27;89120;-72
2022/04/10 08:43:15;;;;;;;8.30;4.22;;;23.00;69.50;;;;;;6257228;28;87964;-71
2022/04/10 08:46:21;;;;;;;7.53;4.10;;;23.00;68.20;;;;;;6257649;27;89175;-72
2022/04/10 08:49:26;;;;;;;9.00;3.97;;;23.00;68.10;;;;;;6256777;27;88348;-71
2022/04/10 08:52:29;;;;;;;6.30;3.83;;;23.00;67.90;;;;;;6256279;28;87658;-71
2022/04/10 08:55:31;;;;;;;8.38;4.18;;;23.00;67.90;;;;;;6258717;27;89115;-72
2022/04/10 08:58:34;;;;;;;7.78;3.80;;;23.00;67.90;;;;;;6258828;27;90170;-70
2022/04/10 09:01:37;;;;;;;5.68;3.55;;;23.00;67.80;;;;;;6256386;28;89033;-71
2022/04/10 09:04:40;;;;;;;8.10;4.00;;;23.00;68.00;;;;;;6246206;28;89110;-72
2022/04/10 09:08:02;;;;;;;6.45;3.72;;;22.90;68.00;;;;;;6256966;27;89345;-71
2022/04/10 09:11:05;;;;;;;7.82;4.38;;;22.90;67.90;;;;;;6258954;28;89167;-72
2022/04/10 09:14:07;;;;;;;6.53;3.78;;;22.90;67.50;;;;;;6257518;27;89046;-71
2022/04/10 09:17:15;;;;;;;6.95;3.90;;;22.90;67.20;;;;;;6259083;27;89132;-72
2022/04/10 09:20:17;;;;;;;6.20;3.78;;;22.90;67.30;;;;;;6250523;28;88717;-73
2022/04/10 09:23:23;;;;;;;5.63;3.70;;;22.90;67.10;;;;;;6257994;28;87479;-72
2022/04/10 09:26:25;;;;;;;6.28;3.90;;;22.90;67.10;;;;;;6258294;28;88227;-71
2022/04/10 09:29:28;;;;;;;6.20;3.88;;;22.90;67.10;;;;;;6256795;28;89984;-71
2022/04/10 09:32:42;;;;;;;8.23;4.05;;;22.90;67.10;;;;;;6233126;28;89266;-72
2022/04/10 09:35:44;;;;;;;5.57;3.70;;;22.80;67.00;;;;;;6244215;28;87957;-71
2022/04/10 09:38:46;;;;;;;6.72;3.90;;;22.90;67.00;;;;;;6255533;28;89130;-71
2022/04/10 09:41:48;;;;;;;5.90;4.22;;;22.80;66.90;;;;;;6257035;28;87956;-72
2022/04/10 09:44:50;;;;;;;6.10;3.95;;;22.80;67.00;;;;;;6257461;28;88803;-71
2022/04/10 09:47:53;;;;;;;6.40;4.15;;;22.80;67.00;;;;;;6255976;27;89425;-72
2022/04/10 09:51:01;;;;;;;5.95;4.07;;;22.70;67.00;;;;;;6258515;27;88427;-72
2022/04/10 09:54:04;;;;;;;6.55;4.40;;;22.80;67.10;;;;;;6245424;28;89063;-72
2022/04/10 09:57:10;;;;;;;5.53;4.47;;;22.80;67.20;;;;;;6254097;28;90260;-71
2022/04/10 10:00:12;;;;;;;8.10;4.65;;;22.70;67.10;;;;;;6255730;28;89957;-71
2022/04/10 10:03:17;;;;;;;5.82;4.38;;;22.70;67.20;;;;;;6258634;28;89651;-72
2022/04/10 10:06:21;;;;;;;7.43;4.53;;;22.70;67.20;;;;;;6257416;28;87883;-72
2022/04/10 10:09:23;;;;;;;6.55;4.90;;;22.70;67.20;;;;;;6244445;28;89159;-71
2022/04/10 10:12:27;;;;;;;8.10;4.93;;;22.70;67.20;;;;;;6256243;27;89404;-72
2022/04/10 10:15:30;;;;;;;5.93;4.90;;;22.70;67.20;;;;;;6257717;28;89122;-71
2022/04/10 10:18:34;;;;;;;7.32;4.80;;;22.70;67.10;;;;;;6258474;28;89132;-72
2022/04/10 10:21:37;;;;;;;6.68;4.90;;;22.70;67.20;;;;;;6243152;28;87220;-72
2022/04/10 10:24:47;;;;;;;6.15;4.47;;;22.70;67.30;;;;;;6255676;28;89007;-71
2022/04/10 10:28:02;;;;;;;5.75;4.65;;;22.70;67.30;;;;;;6257588;28;89068;-72
2022/04/10 10:31:30;;;;;;;5.25;4.50;;;22.70;67.40;;;;;;6256336;28;90355;-71
2022/04/10 10:34:34;;;;;;;5.07;4.50;;;22.70;67.40;;;;;;6256217;28;89169;-72
2022/04/10 10:37:50;;;;;;;5.65;4.88;;;22.70;67.40;;;;;;6242052;28;88261;-72
2022/04/10 10:40:54;;;;;;;5.88;4.57;;;22.70;67.40;;;;;;6241948;28;89165;-72
2022/04/10 10:43:58;;;;;;;4.93;4.30;;;22.70;67.40;;;;;;6242807;28;89437;-72
2022/04/10 10:47:02;;;;;;;5.13;4.55;;;22.70;67.40;;;;;;6257404;28;89128;-71
2022/04/10 10:50:26;;;;;;;5.55;4.70;;;22.70;67.40;;;;;;6256084;28;89136;-72
2022/04/10 10:53:47;;;;;;;6.15;4.53;;;22.70;67.40;;;;;;6246422;28;88252;-71
2022/04/10 10:56:50;;;;;;;6.35;4.60;;;22.70;67.40;;;;;;6245984;28;89161;-72
2022/04/10 10:59:53;;;;;;;5.00;4.13;;;22.70;67.40;;;;;;6256876;28;89163;-72
2022/04/10 11:02:55;;;;;;;5.57;4.78;;;22.70;67.40;;;;;;6253859;28;89019;-72
2022/04/10 11:06:06;;;;;;;5.07;4.40;;;22.70;67.40;;;;;;6255498;28;89203;-72
2022/04/10 11:09:22;;;;;;;5.18;4.40;;;22.60;67.40;;;;;;6257535;28;89249;-71
2022/04/10 11:12:30;;;;;;;4.93;4.30;;;22.70;67.40;;;;;;6253546;27;89197;-70
2022/04/10 11:15:34;;;;;;;5.05;4.50;;;22.70;67.40;;;;;;6254506;28;89145;-71
2022/04/10 11:18:36;;;;;;;7.75;4.57;;;22.70;67.10;;;;;;6245604;28;89376;-72
2022/04/10 11:21:45;;;;;;;5.45;4.15;;;22.60;66.80;;;;;;6255895;27;89201;-71
2022/04/10 11:24:50;;;;;;;5.13;4.20;;;22.70;66.90;;;;;;6257454;28;87289;-72
2022/04/10 11:27:55;;;;;;;4.35;3.90;;;22.70;66.90;;;;;;6255328;27;89101;-71
2022/04/10 11:30:57;;;;;;;5.20;4.20;;;22.70;66.90;;;;;;6255323;28;89107;-72
2022/04/10 11:34:12;;;;;;;4.93;4.43;;;22.70;66.90;;;;;;6254053;28;90009;-72
2022/04/10 11:37:21;;;;;;;4.80;4.30;;;22.70;66.90;;;;;;6254089;28;89369;-71
2022/04/10 11:40:25;;;;;;;4.32;3.90;;;22.70;66.90;;;;;;6241739;28;89082;-71
2022/04/10 11:43:31;;;;;;;4.78;4.28;;;22.60;66.80;;;;;;6259543;28;89048;-72
2022/04/10 11:46:34;;;;;;;5.45;4.07;;;22.70;66.80;;;;;;6260257;28;89462;-71
2022/04/10 11:49:37;;;;;;;4.72;4.18;;;22.60;66.70;;;;;;6254584;28;89283;-72
2022/04/10 11:52:41;;;;;;;4.32;3.92;;;22.60;66.70;;;;;;6252527;28;89009;-71
2022/04/10 11:55:44;;;;;;;4.70;4.10;;;22.60;66.70;;;;;;6245556;28;88535;-71
2022/04/10 11:58:46;;;;;;;5.15;3.88;;;22.70;66.70;;;;;;6260439;28;89045;-71
2022/04/10 12:01:50;;;;;;;4.43;3.80;;;22.60;66.60;;;;;;6258815;28;89151;-72
2022/04/10 12:04:52;;;;;;;4.00;3.60;;;22.60;66.60;;;;;;6259399;28;89998;-72
2022/04/10 12:08:01;;;;;;;4.65;4.15;;;22.60;66.60;;;;;;6259306;28;89456;-72
2022/04/10 12:11:04;;;;;;;4.10;3.70;;;22.60;66.50;;;;;;6257479;28;88786;-72
2022/04/10 12:14:22;;;;;;;3.90;3.47;;;22.70;66.60;;;;;;6250067;28;88951;-71
2022/04/10 12:17:24;;;;;;;4.20;3.80;;;22.70;66.60;;;;;;6246320;28;89455;-71
2022/04/10 12:20:27;;;;;;;4.45;3.65;;;22.60;66.50;;;;;;6246334;28;89099;-72
2022/04/10 12:23:30;;;;;;;4.47;3.55;;;22.70;66.60;;;;;;6260531;28;89207;-71
2022/04/10 12:26:33;;;;;;;4.47;3.47;;;22.70;66.50;;;;;;6258968;28;88428;-70
2022/04/10 12:29:36;;;;;;;4.07;3.47;;;22.60;66.40;;;;;;6259674;28;89143;-71
2022/04/10 12:32:39;;;;;;;4.45;3.70;;;22.60;66.40;;;;;;6258900;28;89100;-73
2022/04/10 12:35:44;;;;;;;3.72;3.38;;;22.70;66.40;;;;;;6258429;28;90051;-72
2022/04/10 12:38:52;;;;;;;4.07;3.40;;;22.70;66.40;;;;;;6253222;28;88071;-71
2022/04/10 12:42:01;;;;;;;3.90;3.47;;;22.60;66.40;;;;;;6253079;28;89184;-72
2022/04/10 12:45:08;;;;;;;4.10;3.30;;;22.60;66.30;;;;;;6251810;28;89079;-72
2022/04/10 12:48:23;;;;;;;3.65;3.35;;;22.60;66.20;;;;;;6247000;28;89194;-71
2022/04/10 12:51:26;;;;;;;4.30;3.40;;;22.60;66.20;;;;;;6252885;28;89122;-72
2022/04/10 12:54:37;;;;;;;3.60;3.30;;;22.60;66.20;;;;;;6252532;27;88585;-72
2022/04/10 12:57:39;;;;;;;3.90;3.35;;;22.60;66.20;;;;;;6238934;28;88363;-72
2022/04/10 13:00:46;;;;;;;3.45;3.15;;;22.60;66.20;;;;;;6257180;27;89375;-72
2022/04/10 13:03:48;;;;;;;4.90;3.33;;;22.60;66.20;;;;;;6257167;28;89288;-72
2022/04/10 13:06:52;;;;;;;4.10;3.47;;;22.60;66.20;;;;;;6259210;28;92064;-70
2022/04/10 13:10:06;;;;;;;3.30;3.00;;;22.60;66.20;;;;;;6257397;28;89139;-71
2022/04/10 13:13:09;;;;;;;3.53;3.00;;;22.60;66.10;;;;;;6259332;28;89002;-71
2022/04/10 13:16:11;;;;;;;3.30;2.88;;;22.60;66.10;;;;;;6256843;28;88100;-71
2022/04/10 13:19:15;;;;;;;3.20;2.90;;;22.60;66.10;;;;;;6257634;27;89574;-72
2022/04/10 13:22:18;;;;;;;3.13;2.83;;;22.60;66.20;;;;;;6257277;28;89022;-72
2022/04/10 13:25:22;;;;;;;3.80;3.17;;;22.60;66.10;;;;;;6259215;27;88313;-71
2022/04/10 13:28:24;;;;;;;3.20;2.90;;;22.60;66.10;;;;;;6255765;28;88705;-72
2022/04/10 13:31:26;;;;;;;3.42;3.13;;;22.60;66.10;;;;;;6245303;28;89080;-72
2022/04/10 13:34:30;;;;;;;3.38;3.08;;;22.60;66.10;;;;;;6259715;28;89103;-71
2022/04/10 13:37:32;;;;;;;3.15;2.85;;;22.60;66.10;;;;;;6256678;28;88911;-71
2022/04/10 13:40:35;;;;;;;4.18;2.95;;;22.60;66.10;;;;;;6256567;27;89115;-71
2022/04/10 13:43:38;;;;;;;2.90;2.70;;;22.60;67.10;;;;;;6256331;28;89174;-72
2022/04/10 13:46:40;;;;;;;3.20;2.90;;;22.60;66.10;;;;;;6243975;28;87639;-72
2022/04/10 13:49:42;;;;;;;3.20;2.90;;;22.60;66.10;;;;;;6258603;28;89163;-72
2022/04/10 13:52:44;;;;;;;3.15;2.80;;;22.60;66.10;;;;;;6241649;28;89393;-71
2022/04/10 13:55:48;;;;;;;3.28;2.97;;;22.60;66.20;;;;;;6236880;28;89032;-72
2022/04/10 13:58:50;;;;;;;3.70;2.95;;;22.60;66.20;;;;;;6258520;28;88350;-72
2022/04/10 14:01:52;;;;;;;3.22;2.70;;;22.60;66.20;;;;;;6256421;28;87989;-71
2022/04/10 14:04:54;;;;;;;2.88;2.63;;;22.60;66.20;;;;;;6244619;28;89026;-72
2022/04/10 14:07:56;;;;;;;3.92;3.00;;;22.60;66.20;;;;;;6256280;28;89975;-72
2022/04/10 14:11:00;;;;;;;3.20;2.90;;;22.60;66.20;;;;;;6256502;28;91627;-71
2022/04/10 14:14:02;;;;;;;3.83;2.97;;;22.60;66.20;;;;;;6256720;27;89075;-72
2022/04/10 14:17:05;;;;;;;3.75;3.00;;;22.60;66.20;;;;;;6245615;28;89097;-70
2022/04/10 14:20:08;;;;;;;3.08;2.70;;;22.60;66.20;;;;;;6244786;28;88115;-72
2022/04/10 14:23:10;;;;;;;3.28;2.70;;;22.60;66.20;;;;;;6244689;27;89126;-71
2022/04/10 14:26:14;;;;;;;3.00;2.72;;;22.60;66.20;;;;;;6256223;28;89141;-71
2022/04/10 14:29:16;;;;;;;4.07;2.83;;;22.60;66.20;;;;;;6248061;28;88323;-71
2022/04/10 14:32:18;;;;;;;2.95;2.65;;;22.60;66.20;;;;;;6253736;28;88994;-72
2022/04/10 14:35:21;;;;;;;3.00;2.70;;;22.50;66.10;;;;;;6257055;28;89295;-71
2022/04/10 14:38:23;;;;;;;3.40;3.10;;;22.60;66.20;;;;;;6243095;27;89901;-72
2022/04/10 14:41:26;;;;;;;3.50;3.10;;;22.50;66.10;;;;;;6255604;28;89366;-71
2022/04/10 14:44:28;;;;;;;3.35;3.05;;;22.60;66.20;;;;;;6254849;28;88130;-72
2022/04/10 14:47:30;;;;;;;3.17;2.95;;;22.60;66.20;;;;;;6256899;27;89088;-71
2022/04/10 14:50:34;;;;;;;3.35;3.03;;;22.50;66.20;;;;;;6255302;27;89070;-71
2022/04/10 14:53:36;;;;;;;3.40;3.10;;;22.50;66.20;;;;;;6253242;28;89293;-71
2022/04/10 14:56:39;;;;;;;3.70;3.30;;;22.50;66.20;;;;;;6252316;27;89381;-72
2022/04/10 14:59:41;;;;;;;3.75;3.35;;;22.50;66.30;;;;;;6255031;28;88443;-71
2022/04/10 15:02:43;;;;;;;3.65;3.35;;;22.50;66.30;;;;;;6252394;28;89014;-72
2022/04/10 15:05:45;;;;;;;3.40;3.10;;;22.50;66.30;;;;;;6251977;28;89143;-72
2022/04/10 15:08:47;;;;;;;3.63;3.33;;;22.50;66.30;;;;;;6241230;28;90427;-71
2022/04/10 15:11:51;;;;;;;3.70;3.40;;;22.50;66.40;;;;;;6241451;28;89097;-72
2022/04/10 15:14:54;;;;;;;3.80;3.50;;;22.50;66.40;;;;;;6251841;28;88009;-71
2022/04/10 15:17:55;;;;;;;3.80;3.38;;;22.50;66.40;;;;;;6249026;28;89184;-71
2022/04/10 15:20:58;;;;;;;3.70;3.40;;;22.50;66.40;;;;;;6251954;28;89260;-72
2022/04/10 15:24:00;;;;;;;3.92;3.63;;;22.40;66.40;;;;;;6256958;27;89244;-71
2022/04/10 15:27:04;;;;;;;4.00;3.60;;;22.40;66.40;;;;;;6244589;28;89120;-71
2022/04/10 15:30:10;;;;;;;3.85;3.55;;;22.40;66.40;;;;;;6242888;27;88751;-71
2022/04/10 15:33:12;;;;;;;4.30;3.90;;;22.40;66.40;;;;;;6247542;28;89180;-71
2022/04/10 15:36:15;;;;;;;3.97;3.58;;;22.40;66.40;;;;;;6253482;27;88282;-70
2022/04/10 15:39:17;;;;;;;4.10;3.70;;;22.40;66.40;;;;;;6255590;28;90024;-68
2022/04/10 15:42:21;;;;;;;4.57;3.90;;;22.50;66.50;;;;;;6257269;27;89032;-69
2022/04/10 15:45:24;;;;;;;4.38;3.97;;;22.50;66.60;;;;;;6255620;27;90180;-68
2022/04/10 15:48:26;;;;;;;4.63;4.10;;;22.40;66.60;;;;;;6257564;28;88046;-69
2022/04/10 15:51:28;;;;;;;5.25;3.83;;;22.40;66.60;;;;;;6256202;28;89020;-69
2022/04/10 15:54:30;;;;;;;4.63;3.83;;;22.40;66.70;;;;;;6255522;27;89157;-70
2022/04/10 15:57:34;;;;;;;5.15;3.92;;;22.40;66.70;;;;;;6257736;28;89087;-69